Time;durP1;ratioP1;P1;durP2;ratioP2;P2;SDS_P1;SDS_P2;PMS_P1;PMS_P2;Temp;Humidity;BMP_temperature;BMP_pressure;BME280_temperature;BME280_humidity;BME280_pressure;Samples;Min_cycle;Max_cycle;Signal;HPM_P1;HPM_P2
2023/05/13 00:01:04;;;;;;;11.45;10.20;;;11.80;99.90;;;;;;4979274;28;90705;-33
2023/05/13 00:03:30;;;;;;;13.05;9.98;;;11.80;99.90;;;;;;4978843;28;90300;-35
2023/05/13 00:05:56;;;;;;;10.52;9.45;;;11.80;99.90;;;;;;4979831;28;89550;-34
2023/05/13 00:08:22;;;;;;;12.15;10.85;;;11.80;99.90;;;;;;4979224;28;89742;-32
2023/05/13 00:10:47;;;;;;;11.27;10.18;;;11.80;99.90;;;;;;4979383;28;89798;-31
2023/05/13 00:13:13;;;;;;;12.93;11.57;;;11.70;99.90;;;;;;4982875;28;89456;-32
2023/05/13 00:15:39;;;;;;;15.82;9.65;;;11.70;99.90;;;;;;4986871;28;88980;-32
2023/05/13 00:18:05;;;;;;;11.60;10.40;;;11.70;99.90;;;;;;4978958;28;90176;-36
2023/05/13 00:20:31;;;;;;;12.20;10.55;;;11.70;99.90;;;;;;4978756;28;88447;-35
2023/05/13 00:22:56;;;;;;;11.40;10.30;;;11.60;99.90;;;;;;4978684;28;90639;-32
2023/05/13 00:25:22;;;;;;;13.73;8.95;;;11.60;99.90;;;;;;4978067;28;89884;-35
2023/05/13 00:27:47;;;;;;;13.93;11.77;;;11.60;99.90;;;;;;4986067;28;90279;-31
2023/05/13 00:30:13;;;;;;;14.40;9.52;;;11.50;99.90;;;;;;4997735;28;89672;-33
2023/05/13 00:32:38;;;;;;;16.65;10.40;;;11.50;99.90;;;;;;4993035;28;89686;-35
2023/05/13 00:35:05;;;;;;;10.68;9.73;;;11.50;99.90;;;;;;4991510;28;89504;-35
2023/05/13 00:37:30;;;;;;;10.85;9.75;;;11.40;99.90;;;;;;4998311;28;90279;-32
2023/05/13 00:39:56;;;;;;;13.35;11.15;;;11.40;99.90;;;;;;4998377;28;89715;-33
2023/05/13 00:42:21;;;;;;;12.10;10.65;;;11.50;99.90;;;;;;4997372;28;89478;-33
2023/05/13 00:44:47;;;;;;;12.95;11.13;;;11.40;99.90;;;;;;4998999;28;88350;-32
2023/05/13 00:47:13;;;;;;;10.07;9.07;;;11.40;99.90;;;;;;4996156;28;91291;-32
2023/05/13 00:49:38;;;;;;;12.35;9.38;;;11.40;99.90;;;;;;4998392;28;90285;-33
2023/05/13 00:52:05;;;;;;;10.45;9.00;;;11.40;99.90;;;;;;4997980;28;90245;-32
2023/05/13 00:54:30;;;;;;;10.88;9.77;;;11.40;99.90;;;;;;4998573;28;88710;-34
2023/05/13 00:56:58;;;;;;;12.02;10.73;;;11.40;99.90;;;;;;4998597;28;89841;-36
2023/05/13 00:59:26;;;;;;;12.40;10.98;;;11.30;99.90;;;;;;4996829;28;89261;-33
2023/05/13 01:02:37;;;;;;;10.23;9.23;;;11.30;99.90;;;;;;4997442;28;89976;-33
2023/05/13 01:05:20;;;;;;;13.10;10.95;;;11.30;99.90;;;;;;4973151;28;88416;-35
2023/05/13 01:08:03;;;;;;;16.42;10.43;;;11.20;99.90;;;;;;4997426;28;90368;-32
2023/05/13 01:10:28;;;;;;;14.55;11.27;;;11.30;99.90;;;;;;4998677;28;89715;-32
2023/05/13 01:13:00;;;;;;;12.18;10.90;;;11.20;99.90;;;;;;5000654;28;89228;-33
2023/05/13 01:15:27;;;;;;;12.15;9.70;;;11.20;99.90;;;;;;4989605;28;91277;-35
2023/05/13 01:18:08;;;;;;;14.57;10.00;;;11.20;99.90;;;;;;4995813;28;90853;-35
2023/05/13 01:20:34;;;;;;;14.20;10.38;;;11.20;99.90;;;;;;4982276;28;90179;-35
2023/05/13 01:22:59;;;;;;;11.68;10.23;;;11.10;99.90;;;;;;4982423;28;91810;-31
2023/05/13 01:25:25;;;;;;;11.43;10.23;;;11.10;99.90;;;;;;4982018;28;89765;-33
2023/05/13 01:27:52;;;;;;;13.50;11.20;;;11.10;99.90;;;;;;4988712;28;90703;-35
2023/05/13 01:30:19;;;;;;;12.30;10.73;;;11.00;99.90;;;;;;4988393;28;89584;-34
2023/05/13 01:32:45;;;;;;;12.05;10.75;;;11.00;99.90;;;;;;4982870;28;89386;-34
2023/05/13 01:35:11;;;;;;;12.27;11.00;;;11.00;99.90;;;;;;4982054;28;88692;-35
2023/05/13 01:37:37;;;;;;;11.90;10.70;;;10.90;99.90;;;;;;4982200;28;90217;-33
2023/05/13 01:40:06;;;;;;;13.98;12.52;;;10.90;99.90;;;;;;4982116;28;89814;-35
2023/05/13 01:42:33;;;;;;;13.40;10.80;;;10.90;99.90;;;;;;4981752;28;90304;-34
2023/05/13 01:44:59;;;;;;;14.85;11.52;;;10.90;99.90;;;;;;4982693;28;89819;-32
2023/05/13 01:47:25;;;;;;;11.75;10.45;;;10.90;99.90;;;;;;4986074;28;89939;-32
2023/05/13 01:49:51;;;;;;;15.10;10.55;;;10.80;99.90;;;;;;5000564;28;89755;-31
2023/05/13 01:52:17;;;;;;;31.63;11.38;;;10.90;99.90;;;;;;4981961;28;90240;-32
2023/05/13 01:54:42;;;;;;;13.77;10.70;;;10.90;99.90;;;;;;4992249;28;90133;-35
2023/05/13 01:57:08;;;;;;;11.50;9.40;;;10.80;99.90;;;;;;4999337;28;90474;-33
2023/05/13 01:59:33;;;;;;;11.57;10.38;;;10.80;99.90;;;;;;5000358;28;90714;-32
2023/05/13 02:01:59;;;;;;;10.98;9.73;;;10.70;99.90;;;;;;4998601;28;90057;-33
2023/05/13 02:04:25;;;;;;;12.43;10.50;;;10.70;99.90;;;;;;5000137;28;90661;-31
2023/05/13 02:06:50;;;;;;;14.80;10.45;;;10.70;99.90;;;;;;4997735;28;89227;-34
2023/05/13 02:09:16;;;;;;;13.82;11.00;;;10.70;99.90;;;;;;5000131;28;90224;-35
2023/05/13 02:11:42;;;;;;;15.15;11.27;;;10.70;99.90;;;;;;4998671;28;89362;-35
2023/05/13 02:14:07;;;;;;;17.55;10.23;;;10.60;99.90;;;;;;4999564;28;89256;-35
2023/05/13 02:16:33;;;;;;;12.07;10.32;;;10.60;99.90;;;;;;4999521;28;91107;-33
2023/05/13 02:18:58;;;;;;;12.30;11.15;;;10.60;99.90;;;;;;4999189;28;89843;-33
2023/05/13 02:21:24;;;;;;;13.85;12.45;;;10.60;99.90;;;;;;4997789;28;88939;-34
2023/05/13 02:23:50;;;;;;;11.27;10.18;;;10.50;99.90;;;;;;5000083;28;88873;-35
2023/05/13 02:26:15;;;;;;;13.35;11.43;;;10.50;99.90;;;;;;4997029;28;90441;-32
2023/05/13 02:28:41;;;;;;;10.98;9.20;;;10.50;99.90;;;;;;4997362;28;91266;-33
2023/05/13 02:31:06;;;;;;;15.02;12.25;;;10.50;99.90;;;;;;4998544;28;90432;-35
2023/05/13 02:33:32;;;;;;;15.15;10.85;;;10.50;99.90;;;;;;4998810;28;88305;-33
2023/05/13 02:35:58;;;;;;;17.25;11.77;;;10.40;99.90;;;;;;4997813;28;89764;-33
2023/05/13 02:38:23;;;;;;;15.20;10.82;;;10.40;99.90;;;;;;4998197;28;89785;-35
2023/05/13 02:40:49;;;;;;;15.65;11.50;;;10.40;99.90;;;;;;4998351;28;89689;-36
2023/05/13 02:43:14;;;;;;;14.15;11.63;;;10.50;99.90;;;;;;4998356;28;88218;-32
2023/05/13 02:45:40;;;;;;;15.27;11.60;;;10.50;99.90;;;;;;4998054;28;91403;-34
2023/05/13 02:48:06;;;;;;;13.73;12.30;;;10.50;99.90;;;;;;4998537;28;90110;-37
2023/05/13 02:50:32;;;;;;;12.25;11.05;;;10.40;99.90;;;;;;4982356;28;89223;-31
2023/05/13 02:52:57;;;;;;;12.30;11.18;;;10.40;99.90;;;;;;4979279;28;89404;-32
2023/05/13 02:55:23;;;;;;;14.18;12.68;;;10.30;99.90;;;;;;4980134;28;90194;-32
2023/05/13 02:57:48;;;;;;;15.98;10.50;;;10.30;99.90;;;;;;4979939;28;89826;-33
2023/05/13 03:00:14;;;;;;;14.63;12.35;;;10.30;99.90;;;;;;4979881;28;88540;-33
2023/05/13 03:02:40;;;;;;;13.48;11.25;;;10.30;99.90;;;;;;4991687;28;88608;-33
2023/05/13 03:05:07;;;;;;;13.80;12.27;;;10.30;99.90;;;;;;4998945;28;90171;-34
2023/05/13 03:07:33;;;;;;;14.82;13.25;;;10.20;99.90;;;;;;5000091;28;90324;-31
2023/05/13 03:09:58;;;;;;;14.00;12.38;;;10.20;99.90;;;;;;4986058;28;89524;-35
2023/05/13 03:12:24;;;;;;;15.38;11.73;;;10.20;99.90;;;;;;4999160;28;87992;-31
2023/05/13 03:14:50;;;;;;;14.48;12.95;;;10.20;99.90;;;;;;4999274;28;90075;-32
2023/05/13 03:17:16;;;;;;;20.08;13.20;;;10.10;99.90;;;;;;4998280;28;90691;-34
2023/05/13 03:19:41;;;;;;;21.13;13.98;;;10.10;99.90;;;;;;4994997;28;89841;-33
2023/05/13 03:22:07;;;;;;;13.95;12.27;;;10.10;99.90;;;;;;4987113;28;88747;-33
2023/05/13 03:24:33;;;;;;;14.43;12.10;;;10.10;99.90;;;;;;4979673;28;90093;-31
2023/05/13 03:26:58;;;;;;;18.23;15.43;;;10.10;99.90;;;;;;4992073;28;89555;-33
2023/05/13 03:29:24;;;;;;;14.48;12.93;;;10.00;99.90;;;;;;4992406;28;89827;-36
2023/05/13 03:31:51;;;;;;;14.63;11.80;;;10.00;99.90;;;;;;4993204;28;88717;-31
2023/05/13 03:34:16;;;;;;;19.35;12.38;;;10.00;99.90;;;;;;4978544;28;90352;-33
2023/05/13 03:36:42;;;;;;;14.10;12.35;;;10.00;99.90;;;;;;4980446;28;90216;-34
2023/05/13 03:39:07;;;;;;;13.90;12.50;;;10.00;99.90;;;;;;4978530;28;89152;-32
2023/05/13 03:41:34;;;;;;;15.60;13.88;;;9.90;99.90;;;;;;4978073;28;90307;-32
2023/05/13 03:44:00;;;;;;;16.08;14.40;;;9.90;99.90;;;;;;4979880;28;88705;-31
2023/05/13 03:46:28;;;;;;;16.48;13.43;;;9.90;99.90;;;;;;4979761;28;90006;-35
2023/05/13 03:48:54;;;;;;;18.90;13.43;;;9.90;99.90;;;;;;4994118;28;90480;-34
2023/05/13 03:51:21;;;;;;;15.02;13.13;;;10.00;99.90;;;;;;4979614;28;88833;-32
2023/05/13 03:53:47;;;;;;;14.82;12.98;;;10.00;99.90;;;;;;4978614;28;89999;-33
2023/05/13 03:56:13;;;;;;;16.63;13.02;;;10.00;99.90;;;;;;4978720;28;90202;-30
2023/05/13 03:58:39;;;;;;;17.00;13.48;;;10.00;99.90;;;;;;4979507;28;89803;-35
2023/05/13 04:01:06;;;;;;;15.48;13.65;;;10.00;99.90;;;;;;4979097;28;87593;-34
2023/05/13 04:03:31;;;;;;;16.25;13.30;;;9.90;99.90;;;;;;4979410;28;90702;-34
2023/05/13 04:05:57;;;;;;;16.80;12.15;;;9.90;99.90;;;;;;4991344;28;90275;-33
2023/05/13 04:08:23;;;;;;;14.45;12.82;;;9.90;99.90;;;;;;4992512;28;90885;-34
2023/05/13 04:10:48;;;;;;;20.95;15.00;;;9.90;99.90;;;;;;4978879;28;88537;-33
2023/05/13 04:13:14;;;;;;;16.52;14.45;;;9.90;99.90;;;;;;5019604;22;91022;-33
2023/05/13 04:15:39;;;;;;;21.05;13.98;;;9.90;99.90;;;;;;4979696;28;89454;-30
2023/05/13 04:18:05;;;;;;;16.10;14.18;;;9.90;99.90;;;;;;4980994;28;90899;-33
2023/05/13 04:20:31;;;;;;;18.70;15.60;;;9.90;99.90;;;;;;4981541;28;89853;-35
2023/05/13 04:22:56;;;;;;;15.93;13.98;;;9.90;99.90;;;;;;4994420;28;90287;-32
2023/05/13 04:25:22;;;;;;;19.48;15.40;;;9.90;99.90;;;;;;4991788;28;89449;-30
2023/05/13 04:27:47;;;;;;;19.35;15.60;;;10.00;99.90;;;;;;4983742;28;89908;-35
2023/05/13 04:30:13;;;;;;;24.95;14.95;;;10.00;99.90;;;;;;4980321;28;88454;-35
2023/05/13 04:32:39;;;;;;;19.05;15.52;;;10.00;99.90;;;;;;4981904;28;89983;-33
2023/05/13 04:35:06;;;;;;;21.77;16.73;;;10.00;99.90;;;;;;4982305;28;89764;-31
2023/05/13 04:37:32;;;;;;;24.27;17.90;;;10.00;99.90;;;;;;4996363;28;89658;-32
2023/05/13 04:39:58;;;;;;;22.30;17.73;;;10.10;99.90;;;;;;4988443;28;88143;-32
2023/05/13 04:42:24;;;;;;;22.13;15.40;;;10.20;99.90;;;;;;4988464;28;92129;-30
2023/05/13 04:44:49;;;;;;;25.35;18.15;;;10.30;99.90;;;;;;4988140;28;89322;-31
2023/05/13 04:47:15;;;;;;;24.30;18.02;;;10.40;99.90;;;;;;4996248;28;89456;-35
2023/05/13 04:49:41;;;;;;;24.00;19.90;;;10.40;99.90;;;;;;5007845;28;88302;-31
2023/05/13 04:52:07;;;;;;;22.73;18.85;;;10.40;99.90;;;;;;5016718;28;89566;-31
2023/05/13 04:54:34;;;;;;;29.38;22.70;;;10.40;99.90;;;;;;5005701;28;90380;-35
2023/05/13 04:57:00;;;;;;;26.98;20.75;;;10.50;99.90;;;;;;5006232;28;90688;-31
2023/05/13 04:59:26;;;;;;;26.60;19.63;;;10.50;99.90;;;;;;4978924;28;89066;-31
2023/05/13 05:01:52;;;;;;;24.55;19.13;;;10.40;99.90;;;;;;4982492;28;90294;-31
2023/05/13 05:04:18;;;;;;;23.50;17.15;;;10.40;99.90;;;;;;4987461;28;89539;-34
2023/05/13 05:06:43;;;;;;;29.30;19.75;;;10.50;99.90;;;;;;4980528;28;90981;-33
2023/05/13 05:09:09;;;;;;;22.55;20.15;;;10.60;99.90;;;;;;4978434;28;88552;-34
2023/05/13 05:11:36;;;;;;;23.73;20.65;;;10.90;99.90;;;;;;4979649;28;89781;-35
2023/05/13 05:14:02;;;;;;;22.40;18.23;;;11.20;99.90;;;;;;4977941;28;90066;-36
2023/05/13 05:16:27;;;;;;;27.83;22.25;;;11.20;99.90;;;;;;4991506;28;89737;-32
2023/05/13 05:18:53;;;;;;;23.80;19.13;;;11.40;99.90;;;;;;4977739;28;89212;-31
2023/05/13 05:21:18;;;;;;;22.40;19.95;;;11.40;99.90;;;;;;4978118;28;90181;-34
2023/05/13 05:23:44;;;;;;;22.85;17.65;;;11.60;99.90;;;;;;4978751;28;89582;-35
2023/05/13 05:26:10;;;;;;;22.80;18.88;;;11.70;99.90;;;;;;4983780;28;88341;-32
2023/05/13 05:28:37;;;;;;;20.85;17.20;;;11.70;99.90;;;;;;4988390;28;88567;-31
2023/05/13 05:31:03;;;;;;;24.08;18.10;;;11.70;99.90;;;;;;4996761;28;90315;-32
2023/05/13 05:33:29;;;;;;;21.45;16.73;;;11.80;99.90;;;;;;4985657;28;89627;-32
2023/05/13 05:35:54;;;;;;;19.90;16.83;;;11.90;99.90;;;;;;4992188;28;90388;-35
2023/05/13 05:38:20;;;;;;;22.20;17.67;;;12.00;99.90;;;;;;4979974;28;88684;-34
2023/05/13 05:40:45;;;;;;;18.15;16.30;;;12.00;99.90;;;;;;4986741;28;88721;-34
2023/05/13 05:43:11;;;;;;;17.95;16.05;;;12.00;99.90;;;;;;4983424;28;90159;-31
2023/05/13 05:45:38;;;;;;;21.75;17.08;;;12.10;99.90;;;;;;4979854;28;90023;-32
2023/05/13 05:48:05;;;;;;;20.00;17.10;;;12.20;99.90;;;;;;5003161;28;89175;-30
2023/05/13 05:50:31;;;;;;;18.25;16.15;;;12.20;99.90;;;;;;4982496;27;89857;-32
2023/05/13 05:52:58;;;;;;;20.75;17.20;;;12.30;99.90;;;;;;4988901;28;90337;-30
2023/05/13 05:55:24;;;;;;;19.25;16.95;;;12.40;99.90;;;;;;4996850;28;90099;-34
2023/05/13 05:57:50;;;;;;;17.58;13.15;;;12.60;99.90;;;;;;5000753;28;92126;-32
2023/05/13 06:00:16;;;;;;;18.65;16.40;;;12.70;99.90;;;;;;4999137;28;90905;-35
2023/05/13 06:02:41;;;;;;;23.80;17.25;;;12.70;99.90;;;;;;5012829;28;89588;-31
2023/05/13 06:05:08;;;;;;;20.05;16.98;;;12.60;99.90;;;;;;5013545;28;89730;-33
2023/05/13 06:07:33;;;;;;;19.73;17.13;;;12.50;99.90;;;;;;5000362;28;89788;-31
2023/05/13 06:09:59;;;;;;;24.90;17.63;;;12.60;99.90;;;;;;4999349;28;90296;-32
2023/05/13 06:12:24;;;;;;;21.45;17.15;;;12.50;99.90;;;;;;5011282;28;89702;-31
2023/05/13 06:14:50;;;;;;;24.10;18.42;;;12.60;99.90;;;;;;5006078;27;89460;-31
2023/05/13 06:17:16;;;;;;;20.73;15.88;;;12.90;99.90;;;;;;5019544;28;89195;-30
2023/05/13 06:19:42;;;;;;;19.27;17.35;;;13.20;99.90;;;;;;5013515;27;90050;-30
2023/05/13 06:22:08;;;;;;;18.13;15.13;;;13.40;99.90;;;;;;5011745;28;90062;-33
2023/05/13 06:24:34;;;;;;;27.38;16.45;;;13.70;99.90;;;;;;5000744;28;89526;-35
2023/05/13 06:27:00;;;;;;;18.27;15.60;;;13.70;99.90;;;;;;5013177;28;88346;-31
2023/05/13 06:29:26;;;;;;;19.35;16.10;;;13.70;99.90;;;;;;5004983;27;90402;-31
2023/05/13 06:31:52;;;;;;;21.13;16.20;;;13.80;99.90;;;;;;5006100;28;90684;-33
2023/05/13 06:34:17;;;;;;;17.35;14.95;;;13.90;99.90;;;;;;5012383;28;90520;-31
2023/05/13 06:36:43;;;;;;;21.48;15.55;;;13.80;99.90;;;;;;5000415;28;89946;-34
2023/05/13 06:39:10;;;;;;;16.58;14.88;;;13.70;99.90;;;;;;5019726;28;92705;-30
2023/05/13 06:41:37;;;;;;;19.05;15.40;;;14.00;99.90;;;;;;5005226;27;89711;-35
2023/05/13 06:44:03;;;;;;;22.25;16.25;;;14.20;99.90;;;;;;4999036;28;88671;-34
2023/05/13 06:46:28;;;;;;;22.60;14.77;;;14.30;99.90;;;;;;4999369;28;88095;-34
2023/05/13 06:48:56;;;;;;;17.65;14.50;;;14.60;99.90;;;;;;5011268;28;89279;-31
2023/05/13 06:51:22;;;;;;;19.23;15.13;;;14.80;99.90;;;;;;4991146;28;89341;-31
2023/05/13 06:53:47;;;;;;;16.60;14.50;;;15.00;99.90;;;;;;4999216;28;89877;-32
2023/05/13 06:56:13;;;;;;;19.52;14.20;;;15.00;99.90;;;;;;5009571;28;89112;-31
2023/05/13 06:58:38;;;;;;;17.67;14.98;;;14.90;99.90;;;;;;5004165;28;90617;-33
2023/05/13 07:01:04;;;;;;;15.48;12.95;;;15.10;99.90;;;;;;5019131;28;89562;-34
2023/05/13 07:03:30;;;;;;;15.30;13.75;;;15.30;99.90;;;;;;5005556;28;89470;-33
2023/05/13 07:05:56;;;;;;;15.18;13.55;;;15.50;99.90;;;;;;5006635;28;88532;-33
2023/05/13 07:08:21;;;;;;;16.10;13.63;;;15.60;99.90;;;;;;5011770;27;89853;-35
2023/05/13 07:10:47;;;;;;;14.32;13.02;;;15.70;99.90;;;;;;4999953;28;89488;-34
2023/05/13 07:13:13;;;;;;;15.10;13.18;;;15.90;99.90;;;;;;5003882;28;89589;-32
2023/05/13 07:15:39;;;;;;;15.50;13.98;;;15.80;99.90;;;;;;5008657;28;89171;-33
2023/05/13 07:18:04;;;;;;;15.85;13.00;;;16.20;99.90;;;;;;4988856;28;89107;-34
2023/05/13 07:20:30;;;;;;;14.68;13.27;;;16.30;99.90;;;;;;4993711;28;90128;-34
2023/05/13 07:22:56;;;;;;;18.52;14.55;;;16.40;99.90;;;;;;4988021;28;89641;-33
2023/05/13 07:25:21;;;;;;;15.10;13.70;;;16.50;99.90;;;;;;4984948;28;88312;-32
2023/05/13 07:27:47;;;;;;;17.38;14.50;;;16.50;99.90;;;;;;4988790;28;89738;-33
2023/05/13 07:30:13;;;;;;;28.60;10.68;;;16.70;99.90;;;;;;4994610;28;89640;-34
2023/05/13 07:32:39;;;;;;;15.65;12.88;;;16.90;99.90;;;;;;4990246;28;89652;-32
2023/05/13 07:35:05;;;;;;;15.73;13.07;;;17.10;99.90;;;;;;4982744;28;89098;-32
2023/05/13 07:37:31;;;;;;;16.50;12.20;;;16.90;99.90;;;;;;4988853;28;91739;-32
2023/05/13 07:39:56;;;;;;;17.80;13.55;;;17.00;99.90;;;;;;4987094;28;89675;-34
2023/05/13 07:42:26;;;;;;;18.95;12.15;;;17.10;99.90;;;;;;4992871;28;88923;-34
2023/05/13 07:44:51;;;;;;;15.98;14.07;;;17.30;99.90;;;;;;4986953;28;88868;-31
2023/05/13 07:47:17;;;;;;;17.92;12.93;;;17.40;99.90;;;;;;4997442;28;90231;-34
2023/05/13 07:49:43;;;;;;;16.55;13.43;;;17.60;99.90;;;;;;5007551;28;90589;-32
2023/05/13 07:52:08;;;;;;;15.10;13.60;;;17.50;99.90;;;;;;5002254;28;89415;-32
2023/05/13 07:54:34;;;;;;;15.65;13.98;;;17.70;99.90;;;;;;4996942;28;88971;-34
2023/05/13 07:56:59;;;;;;;15.82;14.20;;;17.90;99.90;;;;;;4980823;28;90282;-31
2023/05/13 07:59:25;;;;;;;16.63;13.75;;;17.70;99.90;;;;;;4985325;28;88714;-33
2023/05/13 08:01:51;;;;;;;13.90;12.43;;;18.10;99.90;;;;;;4995217;28;89634;-34
2023/05/13 08:04:17;;;;;;;14.82;12.60;;;18.20;99.90;;;;;;4993566;28;88450;-33
2023/05/13 08:06:43;;;;;;;15.30;13.75;;;18.20;99.90;;;;;;4996106;28;89124;-33
2023/05/13 08:09:11;;;;;;;16.42;14.77;;;18.10;99.90;;;;;;4985853;28;90981;-33
2023/05/13 08:11:36;;;;;;;16.00;14.07;;;18.30;99.90;;;;;;4996297;28;90401;-35
2023/05/13 08:14:03;;;;;;;17.60;15.98;;;18.40;99.90;;;;;;4983673;28;88294;-34
2023/05/13 08:16:29;;;;;;;15.00;13.50;;;18.40;99.90;;;;;;4995432;28;90009;-33
2023/05/13 08:18:54;;;;;;;18.50;13.80;;;18.60;99.90;;;;;;5003647;28;89140;-33
2023/05/13 08:21:20;;;;;;;14.05;12.65;;;18.70;99.90;;;;;;5011462;28;89074;-32
2023/05/13 08:23:45;;;;;;;16.02;12.77;;;18.80;99.90;;;;;;5004138;28;90805;-32
2023/05/13 08:26:11;;;;;;;16.92;14.25;;;18.60;99.90;;;;;;4995622;28;90470;-33
2023/05/13 08:28:37;;;;;;;19.50;15.25;;;18.70;99.90;;;;;;5006507;28;90033;-36
2023/05/13 08:31:03;;;;;;;17.88;15.07;;;18.80;99.90;;;;;;5008817;28;89153;-35
2023/05/13 08:33:29;;;;;;;16.40;14.25;;;18.70;99.90;;;;;;4994828;28;89593;-32
2023/05/13 08:35:55;;;;;;;16.15;13.27;;;18.90;99.90;;;;;;4994724;28;91388;-36
2023/05/13 08:38:21;;;;;;;15.20;13.80;;;19.20;99.90;;;;;;4995360;28;89444;-32
2023/05/13 08:40:47;;;;;;;22.02;14.35;;;19.30;99.90;;;;;;5007445;28;88584;-34
2023/05/13 08:43:15;;;;;;;15.13;13.63;;;19.20;99.90;;;;;;5008830;28;89088;-34
2023/05/13 08:45:44;;;;;;;15.50;12.90;;;19.40;99.90;;;;;;4996822;28;90428;-32
2023/05/13 08:48:11;;;;;;;13.88;12.38;;;19.50;99.90;;;;;;5004288;28;89651;-33
2023/05/13 08:50:37;;;;;;;13.43;12.23;;;19.40;92.90;;;;;;4979416;28;89700;-31
2023/05/13 08:53:06;;;;;;;12.77;11.63;;;19.30;91.20;;;;;;4977298;28;89058;-35
2023/05/13 08:55:32;;;;;;;14.02;12.55;;;19.50;99.10;;;;;;4976498;28;90321;-32
2023/05/13 08:57:58;;;;;;;14.45;13.02;;;19.60;92.90;;;;;;4975314;28;90863;-35
2023/05/13 09:00:24;;;;;;;18.02;14.50;;;19.50;91.50;;;;;;4976008;28;92179;-33
2023/05/13 09:02:50;;;;;;;15.50;14.10;;;19.60;99.90;;;;;;4989175;28;89556;-35
2023/05/13 09:05:16;;;;;;;15.15;12.65;;;19.60;99.90;;;;;;4977050;28;90169;-31
2023/05/13 09:07:42;;;;;;;13.27;12.07;;;19.90;99.90;;;;;;4975930;28;88855;-33
2023/05/13 09:10:09;;;;;;;14.07;12.15;;;20.10;99.90;;;;;;4977912;28;89861;-33
2023/05/13 09:12:49;;;;;;;14.07;12.73;;;20.20;99.90;;;;;;4976788;28;89377;-35
2023/05/13 09:15:22;;;;;;;14.75;13.35;;;20.40;95.50;;;;;;4976611;28;90235;-31
2023/05/13 09:18:01;;;;;;;15.48;13.50;;;20.20;99.90;;;;;;4979826;28;90264;-35
2023/05/13 09:20:27;;;;;;;15.70;14.25;;;20.40;91.80;;;;;;4983772;28;89591;-34
2023/05/13 09:22:59;;;;;;;13.65;12.35;;;20.50;91.00;;;;;;4988685;28;90118;-33
2023/05/13 09:25:25;;;;;;;16.65;13.40;;;20.40;99.90;;;;;;4975834;28;90409;-33
2023/05/13 09:27:57;;;;;;;15.82;14.18;;;20.50;94.70;;;;;;4975776;28;89568;-36
2023/05/13 09:30:24;;;;;;;13.13;11.93;;;20.50;95.60;;;;;;4975511;28;89729;-33
2023/05/13 09:33:28;;;;;;;14.17;12.77;;;20.50;87.20;;;;;;4980003;28;89025;-35
2023/05/13 09:35:54;;;;;;;13.98;12.63;;;20.50;89.10;;;;;;4957386;28;90655;-33
2023/05/13 09:38:27;;;;;;;14.02;12.45;;;20.70;99.90;;;;;;4980482;28;90373;-33
2023/05/13 09:40:55;;;;;;;12.90;11.65;;;21.00;85.40;;;;;;4979577;28;88558;-33
2023/05/13 09:43:22;;;;;;;15.30;12.07;;;20.90;90.50;;;;;;4982457;28;89439;-34
2023/05/13 09:45:55;;;;;;;14.07;12.37;;;20.90;91.40;;;;;;4990023;28;90076;-35
2023/05/13 09:48:26;;;;;;;11.85;10.77;;;20.90;85.60;;;;;;5004892;28;89550;-35
2023/05/13 09:50:52;;;;;;;12.75;10.57;;;21.10;81.60;;;;;;4992928;28;90284;-34
2023/05/13 09:53:21;;;;;;;10.63;9.55;;;21.10;78.30;;;;;;5005046;28;88864;-31
2023/05/13 09:55:51;;;;;;;10.70;9.60;;;21.10;87.10;;;;;;4987618;28;90023;-34
2023/05/13 09:58:19;;;;;;;12.02;10.80;;;21.30;78.20;;;;;;4987570;28;89366;-32
2023/05/13 10:00:46;;;;;;;11.17;10.17;;;21.40;81.60;;;;;;4980646;28;89793;-32
2023/05/13 10:03:12;;;;;;;12.77;10.80;;;21.50;81.00;;;;;;4982147;28;89230;-33
2023/05/13 10:05:39;;;;;;;23.90;13.20;;;21.30;81.90;;;;;;4979828;28;91771;-33
2023/05/13 10:08:08;;;;;;;17.47;10.03;;;21.40;80.70;;;;;;4981161;28;89824;-33
2023/05/13 10:10:34;;;;;;;25.95;13.75;;;21.50;89.10;;;;;;4980738;28;88504;-32
2023/05/13 10:13:06;;;;;;;12.90;10.02;;;21.60;81.00;;;;;;4981977;28;91826;-34
2023/05/13 10:15:33;;;;;;;12.75;9.75;;;21.80;88.10;;;;;;4990480;28;91056;-34
2023/05/13 10:18:00;;;;;;;9.65;8.63;;;21.80;87.60;;;;;;4993658;28;90358;-33
2023/05/13 10:20:26;;;;;;;10.38;8.75;;;21.70;76.50;;;;;;4979745;28;89540;-36
2023/05/13 10:22:52;;;;;;;12.05;7.95;;;21.80;74.30;;;;;;4987136;28;88304;-31
2023/05/13 10:25:18;;;;;;;9.35;7.63;;;21.80;80.30;;;;;;4987845;28;90162;-33
2023/05/13 10:27:44;;;;;;;34.53;13.32;;;21.80;71.40;;;;;;4995122;28;90032;-34
2023/05/13 10:30:10;;;;;;;9.43;8.32;;;21.70;74.50;;;;;;4980075;28;89636;-32
2023/05/13 10:32:40;;;;;;;10.65;8.02;;;21.80;77.70;;;;;;4982485;28;89066;-33
2023/05/13 10:35:09;;;;;;;17.33;7.97;;;21.70;80.10;;;;;;4982958;28;89890;-36
2023/05/13 10:38:22;;;;;;;9.65;7.72;;;21.70;74.50;;;;;;4983162;28;90461;-34
2023/05/13 10:40:58;;;;;;;11.25;10.10;;;21.80;78.90;;;;;;4937701;28;91799;-35
2023/05/13 10:43:28;;;;;;;35.20;16.52;;;21.80;77.60;;;;;;4906857;28;88749;-36
2023/05/13 10:45:59;;;;;;;8.80;7.47;;;21.80;69.80;;;;;;4963816;28;88761;-32
2023/05/13 10:48:24;;;;;;;8.40;7.60;;;21.80;69.20;;;;;;5008513;28;89622;-37
2023/05/13 10:50:53;;;;;;;9.45;7.68;;;21.80;69.50;;;;;;4998248;28;90021;-32
2023/05/13 10:53:25;;;;;;;13.55;8.52;;;21.80;74.00;;;;;;5010849;28;89098;-34
2023/05/13 10:55:59;;;;;;;12.85;9.13;;;21.80;73.70;;;;;;4990841;28;89909;-33
2023/05/13 10:58:38;;;;;;;7.50;6.72;;;21.80;69.80;;;;;;5014595;28;89695;-35
2023/05/13 11:01:18;;;;;;;7.30;6.57;;;21.80;70.80;;;;;;5007659;27;89840;-32
2023/05/13 11:03:53;;;;;;;7.93;7.15;;;21.90;71.40;;;;;;5004460;28;89349;-33
2023/05/13 11:06:22;;;;;;;8.43;7.57;;;22.00;72.00;;;;;;4988533;27;90085;-36
2023/05/13 11:08:50;;;;;;;9.55;8.32;;;22.00;72.20;;;;;;4978043;28;90064;-33
2023/05/13 11:11:22;;;;;;;;;;;22.00;70.50;;;;;;4978783;28;89577;-31
2023/05/13 11:13:49;;;;;;;8.38;7.40;;;21.90;70.60;;;;;;4979150;28;88373;-36
2023/05/13 11:16:15;;;;;;;7.53;6.85;;;21.90;69.40;;;;;;4978141;28;90507;-35
2023/05/13 11:18:41;;;;;;;14.40;6.78;;;21.90;71.40;;;;;;4978589;28;88874;-33
2023/05/13 11:21:07;;;;;;;9.13;7.30;;;22.00;71.10;;;;;;4979236;28;88720;-34
2023/05/13 11:23:54;;;;;;;7.15;6.55;;;22.00;68.30;;;;;;4979091;28;88987;-34
2023/05/13 11:26:20;;;;;;;8.38;6.82;;;22.10;71.10;;;;;;4977881;28;91274;-32
2023/05/13 11:29:02;;;;;;;7.00;6.30;;;22.00;65.90;;;;;;4990673;28;90483;-32
2023/05/13 11:31:45;;;;;;;11.63;6.50;;;22.00;66.30;;;;;;5017406;28;89927;-34
2023/05/13 11:34:11;;;;;;;13.10;8.23;;;22.00;64.50;;;;;;5003140;28;88902;-33
2023/05/13 11:36:39;;;;;;;11.13;8.38;;;22.00;66.20;;;;;;4982483;28;90510;-32
2023/05/13 11:39:16;;;;;;;7.60;6.90;;;22.10;66.00;;;;;;4991694;28;90335;-33
2023/05/13 11:41:47;;;;;;;9.63;6.77;;;22.00;66.60;;;;;;4988990;28;89550;-31
2023/05/13 11:44:15;;;;;;;37.20;13.07;;;21.80;64.50;;;;;;4992982;27;90362;-33
2023/05/13 11:47:01;;;;;;;11.75;6.70;;;21.90;67.80;;;;;;4985757;28;90171;-36
2023/05/13 11:49:29;;;;;;;11.23;6.85;;;21.80;60.70;;;;;;4994351;28;90250;-34
2023/05/13 11:51:57;;;;;;;7.68;5.90;;;21.70;62.10;;;;;;5014489;28;89522;-36
2023/05/13 11:54:22;;;;;;;8.90;6.15;;;22.00;65.90;;;;;;4995611;28;90067;-33
2023/05/13 11:56:48;;;;;;;32.58;10.13;;;22.20;62.40;;;;;;5009990;28;89928;-37
2023/05/13 11:59:14;;;;;;;10.68;6.03;;;22.30;61.40;;;;;;4996685;28;89914;-32
2023/05/13 12:01:39;;;;;;;9.25;7.20;;;22.40;62.20;;;;;;5012377;28;88916;-32
2023/05/13 12:04:06;;;;;;;10.38;7.28;;;22.40;61.90;;;;;;5018251;28;89082;-36
2023/05/13 12:06:32;;;;;;;17.55;8.48;;;22.50;58.10;;;;;;4984097;28;91090;-35
2023/05/13 12:09:04;;;;;;;11.27;7.30;;;22.50;61.20;;;;;;4978087;28;89106;-38
2023/05/13 12:11:30;;;;;;;18.67;7.30;;;22.60;58.10;;;;;;4977871;28;89296;-35
2023/05/13 12:13:56;;;;;;;14.25;8.52;;;22.50;59.50;;;;;;4978108;28;89393;-33
2023/05/13 12:16:23;;;;;;;6.93;5.25;;;22.40;56.30;;;;;;4978353;28;90420;-33
2023/05/13 12:18:59;;;;;;;5.60;5.13;;;22.40;57.50;;;;;;4976650;28;90189;-32
2023/05/13 12:21:24;;;;;;;11.38;5.43;;;22.40;60.40;;;;;;4977503;28;91375;-35
2023/05/13 12:23:50;;;;;;;17.23;8.13;;;22.50;60.00;;;;;;4977997;28;89574;-34
2023/05/13 12:26:16;;;;;;;10.75;6.65;;;22.70;63.80;;;;;;4978665;28;88640;-33
2023/05/13 12:28:42;;;;;;;12.73;6.60;;;22.70;58.90;;;;;;4983731;28;89800;-33
2023/05/13 12:31:15;;;;;;;7.20;6.47;;;22.60;58.30;;;;;;4975921;28;89571;-33